createdAt,value
2023-04-23T00:00:15.131Z,0.00
2023-04-23T00:00:37.565Z,0.00
2023-04-23T00:01:02.360Z,0.00
2023-04-23T00:01:27.973Z,0.00
2023-04-23T00:01:50.253Z,0.00
2023-04-23T00:02:12.979Z,0.00
2023-04-23T00:02:35.253Z,0.00
2023-04-23T00:02:58.393Z,3.00
2023-04-23T00:03:21.971Z,3.70
2023-04-23T00:03:45.199Z,0.20
2023-04-23T00:04:09.533Z,0.00
2023-04-23T00:04:36.491Z,0.50
2023-04-23T00:05:02.713Z,0.00
2023-04-23T00:05:30.402Z,0.00
2023-04-23T00:05:54.393Z,0.00
2023-04-23T00:06:17.644Z,0.00
2023-04-23T00:06:40.144Z,0.00
2023-04-23T00:07:03.387Z,0.00
2023-04-23T00:07:25.664Z,0.00
2023-04-23T00:07:47.933Z,5.30
2023-04-23T00:08:11.310Z,0.00
2023-04-23T00:08:33.805Z,0.05
2023-04-23T00:08:56.464Z,0.20
2023-04-23T00:09:18.903Z,0.00
2023-04-23T00:09:41.393Z,0.00
2023-04-23T00:10:05.604Z,0.00
2023-04-23T00:10:27.937Z,0.00
2023-04-23T00:10:50.221Z,2.63
2023-04-23T00:11:12.415Z,0.20
2023-04-23T00:11:34.753Z,0.00
2023-04-23T00:11:58.104Z,0.00
2023-04-23T00:12:21.050Z,0.00
2023-04-23T00:12:43.704Z,0.00
2023-04-23T00:13:06.027Z,0.00
2023-04-23T00:13:28.321Z,0.00
2023-04-23T00:13:50.659Z,0.30
2023-04-23T00:14:12.984Z,0.00
2023-04-23T00:14:35.289Z,0.00
2023-04-23T00:14:57.467Z,0.00
2023-04-23T00:15:22.056Z,0.00
2023-04-23T00:15:44.341Z,0.00
2023-04-23T00:16:06.985Z,0.40
2023-04-23T00:16:29.353Z,0.40
2023-04-23T00:16:51.650Z,0.00
2023-04-23T00:17:13.899Z,0.00
2023-04-23T00:17:36.101Z,0.00
2023-04-23T00:17:58.262Z,1.20
2023-04-23T00:18:20.668Z,0.60
2023-04-23T00:18:42.829Z,0.20
2023-04-23T00:19:04.551Z,0.00
2023-04-23T00:19:26.677Z,0.00
2023-04-23T00:19:48.490Z,0.00
2023-04-23T00:20:10.693Z,0.00
2023-04-23T00:20:34.210Z,0.00
2023-04-23T00:20:56.619Z,0.08
2023-04-23T00:21:18.704Z,0.10
2023-04-23T00:21:40.799Z,0.00
2023-04-23T00:22:03.147Z,0.00
2023-04-23T00:22:25.319Z,0.00
2023-04-23T00:22:47.421Z,0.00
2023-04-23T00:23:09.642Z,0.00
2023-04-23T00:23:31.729Z,0.00
2023-04-23T00:23:53.849Z,0.00
2023-04-23T00:24:15.966Z,0.00
2023-04-23T00:24:39.094Z,1.10
2023-04-23T00:25:01.601Z,0.05
2023-04-23T00:25:23.733Z,0.10
2023-04-23T00:25:45.539Z,0.00
2023-04-23T00:26:07.679Z,0.10
2023-04-23T00:26:29.796Z,0.00
2023-04-23T00:26:53.649Z,0.10
2023-04-23T00:27:16.563Z,0.10
2023-04-23T00:27:38.667Z,0.00
2023-04-23T00:28:00.867Z,0.60
2023-04-23T00:28:23.111Z,0.45
2023-04-23T00:28:45.380Z,2.00
2023-04-23T00:29:07.520Z,2.00
2023-04-23T00:29:29.659Z,0.00
2023-04-23T00:29:51.809Z,0.00
2023-04-23T00:30:14.182Z,0.00
2023-04-23T00:30:36.343Z,0.00
2023-04-23T00:30:58.476Z,0.00
2023-04-23T00:31:22.566Z,0.00
2023-04-23T00:31:44.437Z,0.10
2023-04-23T00:32:07.715Z,0.28
2023-04-23T00:32:30.580Z,0.40
2023-04-23T00:32:52.785Z,0.32
2023-04-23T00:33:14.973Z,2.90
2023-04-23T00:33:36.996Z,2.90
2023-04-23T00:33:59.096Z,0.00
2023-04-23T00:34:21.253Z,0.00
2023-04-23T00:34:43.588Z,0.00
2023-04-23T00:35:06.386Z,0.00
2023-04-23T00:35:28.592Z,0.20
2023-04-23T00:35:50.751Z,2.60
2023-04-23T00:36:12.897Z,0.00
2023-04-23T00:36:35.058Z,0.80
2023-04-23T00:36:57.205Z,0.00
2023-04-23T00:37:19.616Z,0.00
2023-04-23T00:37:41.848Z,0.00
2023-04-23T00:38:03.525Z,0.00
2023-04-23T00:38:26.543Z,0.00
2023-04-23T00:38:48.343Z,0.03
2023-04-23T00:39:11.460Z,0.10
2023-04-23T00:39:33.577Z,0.22
2023-04-23T00:39:55.980Z,1.90
2023-04-23T00:40:18.156Z,0.00
2023-04-23T00:40:40.508Z,0.00
2023-04-23T00:41:02.591Z,0.10
2023-04-23T00:41:24.786Z,0.00
2023-04-23T00:41:47.000Z,0.00
2023-04-23T00:42:12.177Z,0.03
2023-04-23T00:42:34.107Z,0.40
2023-04-23T00:42:58.085Z,0.10
2023-04-23T00:43:20.789Z,2.50
2023-04-23T00:43:43.833Z,0.00
2023-04-23T00:44:05.952Z,0.00
2023-04-23T00:44:28.105Z,0.00
2023-04-23T00:44:51.498Z,0.00
2023-04-23T00:45:14.045Z,0.00
2023-04-23T00:45:36.597Z,0.00
2023-04-23T00:45:58.856Z,0.00
2023-04-23T00:46:21.240Z,0.00
2023-04-23T00:46:43.455Z,0.00
2023-04-23T00:47:07.220Z,0.00
2023-04-23T00:47:30.866Z,0.90
2023-04-23T00:47:54.655Z,0.00
2023-04-23T00:48:17.255Z,0.00
2023-04-23T00:48:39.556Z,0.00
2023-04-23T00:49:02.277Z,0.00
2023-04-23T00:49:24.580Z,0.10
2023-04-23T00:49:46.888Z,0.00
2023-04-23T00:50:09.748Z,0.00
2023-04-23T00:50:31.902Z,0.00
2023-04-23T00:51:00.809Z,0.08
2023-04-23T00:51:24.426Z,0.05
2023-04-23T00:51:46.165Z,0.00
2023-04-23T00:52:08.318Z,0.10
2023-04-23T00:52:31.191Z,0.08
2023-04-23T00:52:53.376Z,0.00
2023-04-23T00:53:15.096Z,0.00
2023-04-23T00:53:37.262Z,0.00
2023-04-23T00:53:59.388Z,0.00
2023-04-23T00:54:22.126Z,0.00
2023-04-23T00:54:44.477Z,1.50
2023-04-23T00:55:07.023Z,0.00
2023-04-23T00:55:29.271Z,0.00
2023-04-23T00:55:51.430Z,0.00
2023-04-23T00:56:14.006Z,0.80
2023-04-23T00:56:36.264Z,0.00
2023-04-23T00:56:58.567Z,0.00
2023-04-23T00:57:20.731Z,0.30
2023-04-23T00:57:43.022Z,0.30
2023-04-23T00:58:06.743Z,0.00
2023-04-23T00:58:30.176Z,0.00
2023-04-23T00:58:53.013Z,0.30
2023-04-23T00:59:15.415Z,0.10
2023-04-23T00:59:37.598Z,0.00
2023-04-23T01:00:00.310Z,0.00
2023-04-23T01:00:22.463Z,0.00
2023-04-23T01:00:47.032Z,0.00
2023-04-23T01:01:09.358Z,0.00
2023-04-23T01:01:33.230Z,0.00
2023-04-23T01:01:56.303Z,0.00
2023-04-23T01:02:18.526Z,0.00
2023-04-23T01:02:42.547Z,2.70
2023-04-23T01:03:05.570Z,0.00
2023-04-23T01:03:29.825Z,0.00
2023-04-23T01:03:53.655Z,0.20
2023-04-23T01:04:17.706Z,0.10
2023-04-23T01:04:41.460Z,0.00
2023-04-23T01:05:05.241Z,0.30
2023-04-23T01:05:27.845Z,0.00
2023-04-23T01:05:50.150Z,0.00
2023-04-23T01:06:12.358Z,0.00
2023-04-23T01:06:34.491Z,0.00
2023-04-23T01:06:56.910Z,0.00
2023-04-23T01:07:19.236Z,0.00
2023-04-23T01:07:41.455Z,0.00
2023-04-23T01:08:03.589Z,0.00
2023-04-23T01:08:26.302Z,0.00
2023-04-23T01:08:48.420Z,0.00
2023-04-23T01:09:11.239Z,0.00
2023-04-23T01:09:33.477Z,0.00
2023-04-23T01:09:56.045Z,0.00
2023-04-23T01:10:18.297Z,0.00
2023-04-23T01:10:40.545Z,0.10
2023-04-23T01:11:03.809Z,0.20
2023-04-23T01:11:26.150Z,0.10
2023-04-23T01:11:49.734Z,0.00
2023-04-23T01:12:12.210Z,0.10
2023-04-23T01:12:34.780Z,0.10
2023-04-23T01:12:56.654Z,0.10
2023-04-23T01:13:18.771Z,0.10
2023-04-23T01:13:42.706Z,0.88
2023-04-23T01:14:05.018Z,0.10
2023-04-23T01:14:27.300Z,0.10
2023-04-23T01:14:49.492Z,0.00
2023-04-23T01:15:11.763Z,0.15
2023-04-23T01:15:33.546Z,0.30
2023-04-23T01:15:56.122Z,0.00
2023-04-23T01:16:18.318Z,0.00
2023-04-23T01:16:41.028Z,0.00
2023-04-23T01:17:03.402Z,0.00
2023-04-23T01:17:26.791Z,0.00
2023-04-23T01:17:49.025Z,0.00
2023-04-23T01:18:12.744Z,0.00
2023-04-23T01:18:35.051Z,0.00
2023-04-23T01:18:58.451Z,0.00
2023-04-23T01:19:20.778Z,0.00
2023-04-23T01:19:42.953Z,0.00
2023-04-23T01:20:06.498Z,0.00
2023-04-23T01:20:28.852Z,0.90
2023-04-23T01:20:51.146Z,0.00
2023-04-23T01:21:13.426Z,0.00
2023-04-23T01:21:36.731Z,1.70
2023-04-23T01:22:01.165Z,3.40
2023-04-23T01:22:23.477Z,0.00
2023-04-23T01:22:46.000Z,0.00
2023-04-23T01:23:08.256Z,0.00
2023-04-23T01:23:30.519Z,0.00
2023-04-23T01:23:52.632Z,0.00
2023-04-23T01:24:14.814Z,0.00
2023-04-23T01:24:37.040Z,0.00
2023-04-23T01:24:59.199Z,0.00
2023-04-23T01:25:21.409Z,0.00
2023-04-23T01:25:43.962Z,0.00
2023-04-23T01:26:06.374Z,0.30
2023-04-23T01:26:28.582Z,0.00
2023-04-23T01:26:50.766Z,0.00
2023-04-23T01:27:13.015Z,0.00
2023-04-23T01:27:36.094Z,0.00
2023-04-23T01:27:59.133Z,0.00
2023-04-23T01:28:22.061Z,0.00
2023-04-23T01:28:45.696Z,0.00
2023-04-23T01:29:08.285Z,0.00
2023-04-23T01:29:31.166Z,0.00
2023-04-23T01:29:53.304Z,0.00
2023-04-23T01:30:15.746Z,0.00
2023-04-23T01:30:38.885Z,0.10
2023-04-23T01:31:01.612Z,0.00
2023-04-23T01:31:24.133Z,0.00
2023-04-23T01:31:46.637Z,0.00
2023-04-23T01:32:09.407Z,0.00
2023-04-23T01:32:32.135Z,0.00
2023-04-23T01:32:57.357Z,0.20
2023-04-23T01:33:19.627Z,0.00
2023-04-23T01:33:41.992Z,0.10
2023-04-23T01:34:04.433Z,0.00
2023-04-23T01:34:26.381Z,0.00
2023-04-23T01:34:48.826Z,0.00
2023-04-23T01:35:13.091Z,0.00
2023-04-23T01:35:36.476Z,0.00
2023-04-23T01:35:58.784Z,0.00
2023-04-23T01:36:21.130Z,0.00
2023-04-23T01:36:44.151Z,0.05
2023-04-23T01:37:06.331Z,0.00
2023-04-23T01:37:29.768Z,0.00
2023-04-23T01:37:52.567Z,0.00
2023-04-23T01:38:14.860Z,0.20
2023-04-23T01:38:37.209Z,0.08
2023-04-23T01:38:59.528Z,1.00
2023-04-23T01:39:21.790Z,1.00
2023-04-23T01:39:43.931Z,0.00
2023-04-23T01:40:08.392Z,0.00
2023-04-23T01:40:30.577Z,0.00
2023-04-23T01:40:52.789Z,0.00
2023-04-23T01:41:14.931Z,1.00
2023-04-23T01:41:37.899Z,0.35
2023-04-23T01:42:01.336Z,0.08
2023-04-23T01:42:23.507Z,0.00
2023-04-23T01:42:45.695Z,0.10
2023-04-23T01:43:08.416Z,0.10
2023-04-23T01:43:31.786Z,0.00
2023-04-23T01:43:54.574Z,0.00
2023-04-23T01:44:16.812Z,0.00
2023-04-23T01:44:39.361Z,0.00
2023-04-23T01:45:02.354Z,0.50
2023-04-23T01:45:24.664Z,0.30
2023-04-23T01:45:46.463Z,0.20
2023-04-23T01:46:08.611Z,0.00
2023-04-23T01:46:31.232Z,0.00
2023-04-23T01:46:53.581Z,0.00
2023-04-23T01:47:16.073Z,0.00
2023-04-23T01:47:38.249Z,0.00
2023-04-23T01:48:01.114Z,0.60
2023-04-23T01:48:23.284Z,0.10
2023-04-23T01:48:45.513Z,1.70
2023-04-23T01:49:07.640Z,0.00
2023-04-23T01:49:29.849Z,0.00
2023-04-23T01:49:51.991Z,0.00
2023-04-23T01:50:14.613Z,0.00
2023-04-23T01:50:36.752Z,0.00
2023-04-23T01:50:59.070Z,0.00
2023-04-23T01:51:21.189Z,0.00
2023-04-23T01:51:43.843Z,0.00
2023-04-23T01:52:05.975Z,0.00
2023-04-23T01:52:28.278Z,0.00
2023-04-23T01:52:50.479Z,0.00
2023-04-23T01:53:12.643Z,0.10
2023-04-23T01:53:34.755Z,0.50
2023-04-23T01:53:56.935Z,0.00
2023-04-23T01:54:19.565Z,0.10
2023-04-23T01:54:42.008Z,0.00
2023-04-23T01:55:04.474Z,0.00
2023-04-23T01:55:26.369Z,0.00
2023-04-23T01:55:48.945Z,0.00
2023-04-23T01:56:11.377Z,0.00
2023-04-23T01:56:35.594Z,0.00
2023-04-23T01:56:58.953Z,0.00
2023-04-23T01:57:24.151Z,0.00
2023-04-23T01:57:47.159Z,0.00
2023-04-23T01:58:09.419Z,0.00
2023-04-23T01:58:31.186Z,0.00
2023-04-23T01:58:53.561Z,0.00
2023-04-23T01:59:15.764Z,0.20
2023-04-23T01:59:38.693Z,1.20
2023-04-23T02:00:08.612Z,1.20
2023-04-23T02:00:30.957Z,1.35
2023-04-23T02:00:53.195Z,1.80
2023-04-23T02:01:15.431Z,0.00
2023-04-23T02:01:46.927Z,0.20
2023-04-23T02:02:13.726Z,0.00
2023-04-23T02:02:37.503Z,0.00
2023-04-23T02:02:59.768Z,0.00
2023-04-23T02:03:21.711Z,0.20
2023-04-23T02:03:44.415Z,0.47
2023-04-23T02:04:06.780Z,1.70
2023-04-23T02:04:31.630Z,0.00
2023-04-23T02:04:53.993Z,0.00
2023-04-23T02:05:18.325Z,0.00
2023-04-23T02:05:41.375Z,0.00
2023-04-23T02:06:05.047Z,0.00
2023-04-23T02:06:27.604Z,0.00
2023-04-23T02:06:50.924Z,0.00
2023-04-23T02:07:13.091Z,0.00
2023-04-23T02:07:36.773Z,0.10
2023-04-23T02:07:58.996Z,1.40
2023-04-23T02:08:21.166Z,0.00
2023-04-23T02:08:43.424Z,0.00
2023-04-23T02:09:05.826Z,0.00
2023-04-23T02:09:27.986Z,0.55
2023-04-23T02:09:50.216Z,1.10
2023-04-23T02:10:15.481Z,0.00
2023-04-23T02:10:37.672Z,0.00
2023-04-23T02:10:59.848Z,0.00
2023-04-23T02:11:22.004Z,0.00
2023-04-23T02:11:44.210Z,0.00
2023-04-23T02:12:06.413Z,0.30
2023-04-23T02:12:28.832Z,2.40
2023-04-23T02:12:51.016Z,1.70
2023-04-23T02:13:13.153Z,0.00
2023-04-23T02:13:35.760Z,0.00
2023-04-23T02:13:57.895Z,0.00
2023-04-23T02:14:20.207Z,0.00
2023-04-23T02:14:42.844Z,0.00
2023-04-23T02:15:06.516Z,0.10
2023-04-23T02:15:28.652Z,0.00
2023-04-23T02:15:50.820Z,0.65
2023-04-23T02:16:13.058Z,1.30
2023-04-23T02:16:35.273Z,0.00
2023-04-23T02:16:57.769Z,0.00
2023-04-23T02:17:21.585Z,0.00
2023-04-23T02:17:43.909Z,0.00
2023-04-23T02:18:06.645Z,0.03
2023-04-23T02:18:28.776Z,0.00
2023-04-23T02:18:51.049Z,0.00
2023-04-23T02:19:15.343Z,0.00
2023-04-23T02:19:38.099Z,0.00
2023-04-23T02:20:00.464Z,0.20
2023-04-23T02:20:22.818Z,0.10
2023-04-23T02:20:44.964Z,0.00
2023-04-23T02:21:06.723Z,0.20
2023-04-23T02:21:28.485Z,0.00
2023-04-23T02:21:50.748Z,1.50
2023-04-23T02:22:12.862Z,0.00
2023-04-23T02:22:34.680Z,0.00
2023-04-23T02:22:56.926Z,0.00
2023-04-23T02:23:18.704Z,0.00
2023-04-23T02:23:40.878Z,0.00
2023-04-23T02:24:03.917Z,0.00
2023-04-23T02:24:25.668Z,0.00
2023-04-23T02:24:48.239Z,0.20
2023-04-23T02:25:10.601Z,0.30
2023-04-23T02:25:33.209Z,0.00
2023-04-23T02:25:55.535Z,0.10
2023-04-23T02:26:18.886Z,0.00
2023-04-23T02:26:40.616Z,0.00
2023-04-23T02:27:03.553Z,0.00
2023-04-23T02:27:25.794Z,0.00
2023-04-23T02:27:48.511Z,0.00
2023-04-23T02:28:13.289Z,0.00
2023-04-23T02:28:35.000Z,0.00
2023-04-23T02:28:57.122Z,0.17
2023-04-23T02:29:19.236Z,0.20
2023-04-23T02:29:41.619Z,0.00
2023-04-23T02:30:04.788Z,0.00
2023-04-23T02:30:26.970Z,0.00
2023-04-23T02:30:49.125Z,0.00
2023-04-23T02:31:11.312Z,0.00
2023-04-23T02:31:33.432Z,0.10
2023-04-23T02:31:55.677Z,0.05
2023-04-23T02:32:17.986Z,0.20
2023-04-23T02:32:40.866Z,0.00
2023-04-23T02:33:03.864Z,0.00
2023-04-23T02:33:26.601Z,0.00
2023-04-23T02:33:48.969Z,0.00
2023-04-23T02:34:11.063Z,0.00
2023-04-23T02:34:33.181Z,0.00
2023-04-23T02:34:55.330Z,0.10
2023-04-23T02:35:17.485Z,0.00
2023-04-23T02:35:39.613Z,0.10
2023-04-23T02:36:01.510Z,0.00
2023-04-23T02:36:23.890Z,0.00
2023-04-23T02:36:46.073Z,0.20
2023-04-23T02:37:08.197Z,3.20
2023-04-23T02:37:30.280Z,0.00
2023-04-23T02:37:54.129Z,0.00
2023-04-23T02:38:15.846Z,0.00
2023-04-23T02:38:38.056Z,0.00
2023-04-23T02:39:00.191Z,0.00
2023-04-23T02:39:22.325Z,0.00
2023-04-23T02:39:44.044Z,0.10
2023-04-23T02:40:06.600Z,1.13
2023-04-23T02:40:28.768Z,0.40
2023-04-23T02:40:50.885Z,0.00
2023-04-23T02:41:13.017Z,0.60
2023-04-23T02:41:35.156Z,0.00
2023-04-23T02:41:58.089Z,0.00
2023-04-23T02:42:20.258Z,0.00
2023-04-23T02:42:44.001Z,1.80
2023-04-23T02:43:05.824Z,1.90
2023-04-23T02:43:27.915Z,0.08
2023-04-23T02:43:49.997Z,0.00
2023-04-23T02:44:12.078Z,0.00
2023-04-23T02:44:33.843Z,0.10
2023-04-23T02:44:55.547Z,0.10
2023-04-23T02:45:17.953Z,3.40
2023-04-23T02:45:40.100Z,4.88
2023-04-23T02:46:08.099Z,0.17
2023-04-23T02:46:31.702Z,0.10
2023-04-23T02:46:54.032Z,0.10
2023-04-23T02:47:16.169Z,0.00
2023-04-23T02:47:38.597Z,0.00
2023-04-23T02:48:00.903Z,0.40
2023-04-23T02:48:23.886Z,0.40
2023-04-23T02:48:45.644Z,0.00
2023-04-23T02:49:07.801Z,0.10
2023-04-23T02:49:29.913Z,0.00
2023-04-23T02:49:52.004Z,0.10
2023-04-23T02:50:14.130Z,0.60
2023-04-23T02:50:36.270Z,3.50
2023-04-23T02:50:58.426Z,3.10
2023-04-23T02:51:20.578Z,0.00
2023-04-23T02:51:42.716Z,0.00
2023-04-23T02:52:04.985Z,0.00
2023-04-23T02:52:27.079Z,0.00
2023-04-23T02:52:49.797Z,0.10
2023-04-23T02:53:12.111Z,0.10
2023-04-23T02:53:34.588Z,0.00
2023-04-23T02:53:56.706Z,0.00
2023-04-23T02:54:18.887Z,5.55
2023-04-23T02:54:41.352Z,11.30
2023-04-23T02:55:03.987Z,0.30
2023-04-23T02:55:26.223Z,0.10
2023-04-23T02:55:48.338Z,0.00
2023-04-23T02:56:10.625Z,0.00
2023-04-23T02:56:32.756Z,0.00
2023-04-23T02:56:54.888Z,0.40
2023-04-23T02:57:17.268Z,0.30
2023-04-23T02:57:39.622Z,0.00
2023-04-23T02:58:01.855Z,0.40
2023-04-23T02:58:23.999Z,0.22
2023-04-23T02:58:46.410Z,0.20
2023-04-23T02:59:09.125Z,0.00
2023-04-23T02:59:31.280Z,0.03
2023-04-23T02:59:53.393Z,0.00
2023-04-23T03:00:16.179Z,0.05
2023-04-23T03:00:38.375Z,0.10
2023-04-23T03:01:01.111Z,0.00
2023-04-23T03:01:23.342Z,0.00
2023-04-23T03:01:45.143Z,0.00
2023-04-23T03:02:07.302Z,1.60
2023-04-23T03:02:29.623Z,0.00
2023-04-23T03:02:52.267Z,0.00
2023-04-23T03:03:14.385Z,0.20
2023-04-23T03:03:36.864Z,0.00
2023-04-23T03:03:59.654Z,0.00
2023-04-23T03:04:22.132Z,0.00
2023-04-23T03:04:44.591Z,0.00
2023-04-23T03:05:07.483Z,0.00
2023-04-23T03:05:29.755Z,0.10
2023-04-23T03:05:51.901Z,0.00
2023-04-23T03:06:14.205Z,0.00
2023-04-23T03:06:36.979Z,0.00
2023-04-23T03:06:59.121Z,0.00
2023-04-23T03:07:21.642Z,0.00
2023-04-23T03:07:43.804Z,0.00
2023-04-23T03:08:05.604Z,0.00
2023-04-23T03:08:28.272Z,1.60
2023-04-23T03:08:50.569Z,0.98
2023-04-23T03:09:12.605Z,0.00
2023-04-23T03:09:34.759Z,0.10
2023-04-23T03:09:56.926Z,0.00
2023-04-23T03:10:19.157Z,0.00
2023-04-23T03:10:41.259Z,0.00
2023-04-23T03:11:03.442Z,0.68
2023-04-23T03:11:25.696Z,2.70
2023-04-23T03:11:48.589Z,0.00
2023-04-23T03:12:10.743Z,0.00
2023-04-23T03:12:32.942Z,0.00
2023-04-23T03:12:56.406Z,0.40
2023-04-23T03:13:18.610Z,0.00
2023-04-23T03:13:40.933Z,0.00
2023-04-23T03:14:03.108Z,0.00
2023-04-23T03:14:25.380Z,0.30
2023-04-23T03:14:47.106Z,0.30
2023-04-23T03:15:09.933Z,0.00
2023-04-23T03:15:32.031Z,0.10
2023-04-23T03:15:54.547Z,1.20
2023-04-23T03:16:16.849Z,0.10
2023-04-23T03:16:39.064Z,0.40
2023-04-23T03:17:01.341Z,0.00
2023-04-23T03:17:23.544Z,0.30
2023-04-23T03:17:45.827Z,0.00
2023-04-23T03:18:08.525Z,0.00
2023-04-23T03:18:30.703Z,0.00
2023-04-23T03:18:52.801Z,0.00
2023-04-23T03:19:15.803Z,0.05
2023-04-23T03:19:38.033Z,0.08
2023-04-23T03:20:00.849Z,0.00
2023-04-23T03:20:23.064Z,0.20
2023-04-23T03:20:45.412Z,0.00
2023-04-23T03:21:07.539Z,0.13
2023-04-23T03:21:29.675Z,0.00
2023-04-23T03:21:51.463Z,0.00
2023-04-23T03:22:13.615Z,0.00
2023-04-23T03:22:36.067Z,0.00
2023-04-23T03:22:58.746Z,0.00
2023-04-23T03:23:20.848Z,0.00
2023-04-23T03:23:42.966Z,0.00
2023-04-23T03:24:05.278Z,0.40
2023-04-23T03:24:27.438Z,0.00
2023-04-23T03:24:49.660Z,0.20
2023-04-23T03:25:12.151Z,0.20
2023-04-23T03:25:34.618Z,1.20
2023-04-23T03:25:56.753Z,0.08
2023-04-23T03:26:18.927Z,0.00
2023-04-23T03:26:41.241Z,0.00
2023-04-23T03:27:03.345Z,0.00
2023-04-23T03:27:25.474Z,0.10
2023-04-23T03:27:47.605Z,0.00
2023-04-23T03:28:09.725Z,0.00
2023-04-23T03:28:32.109Z,0.00
2023-04-23T03:28:54.626Z,0.20
2023-04-23T03:29:16.372Z,0.03
2023-04-23T03:29:38.494Z,0.00
2023-04-23T03:30:00.666Z,0.00
2023-04-23T03:30:22.886Z,0.00
2023-04-23T03:30:45.026Z,0.00
2023-04-23T03:31:07.241Z,0.00
2023-04-23T03:31:29.423Z,0.00
2023-04-23T03:31:51.567Z,0.00
2023-04-23T03:32:13.698Z,0.00
2023-04-23T03:32:37.244Z,0.00
2023-04-23T03:33:02.438Z,2.50
2023-04-23T03:33:24.650Z,0.00
2023-04-23T03:33:46.383Z,0.20
2023-04-23T03:34:08.474Z,0.00
2023-04-23T03:34:30.672Z,0.00
2023-04-23T03:34:52.777Z,0.90
2023-04-23T03:35:14.901Z,0.00
2023-04-23T03:35:36.674Z,0.00
2023-04-23T03:35:58.802Z,0.00
2023-04-23T03:36:21.471Z,0.00
2023-04-23T03:36:44.765Z,0.90
2023-04-23T03:37:07.107Z,0.00
2023-04-23T03:37:29.265Z,0.00
2023-04-23T03:37:51.467Z,0.40
2023-04-23T03:38:13.652Z,0.40
2023-04-23T03:38:35.866Z,0.00
2023-04-23T03:38:58.026Z,0.00
2023-04-23T03:39:20.148Z,0.10
2023-04-23T03:39:42.279Z,0.00
2023-04-23T03:40:07.685Z,0.08
2023-04-23T03:40:31.219Z,0.00
2023-04-23T03:40:53.689Z,0.00
2023-04-23T03:41:15.862Z,0.00
2023-04-23T03:41:38.020Z,0.00
2023-04-23T03:42:00.801Z,0.00
2023-04-23T03:42:22.961Z,0.00
2023-04-23T03:42:45.163Z,0.00
2023-04-23T03:43:07.262Z,0.00
2023-04-23T03:43:29.876Z,0.00
2023-04-23T03:43:52.060Z,2.50
2023-04-23T03:44:14.183Z,2.50
2023-04-23T03:44:36.283Z,0.00
2023-04-23T03:44:58.370Z,0.00
2023-04-23T03:45:20.537Z,0.00
2023-04-23T03:45:42.650Z,0.00
2023-04-23T03:46:04.706Z,0.00
2023-04-23T03:46:26.977Z,0.00
2023-04-23T03:46:49.190Z,0.00
2023-04-23T03:47:11.355Z,0.00
2023-04-23T03:47:33.465Z,0.10
2023-04-23T03:47:55.717Z,0.00
2023-04-23T03:48:17.887Z,0.00
2023-04-23T03:48:40.672Z,0.00
2023-04-23T03:49:02.827Z,6.20
2023-04-23T03:49:27.394Z,0.10
2023-04-23T03:49:49.527Z,0.00
2023-04-23T03:50:15.122Z,0.00
2023-04-23T03:50:40.493Z,0.00
2023-04-23T03:51:02.268Z,1.40
2023-04-23T03:51:24.387Z,0.50
2023-04-23T03:51:46.508Z,0.08
2023-04-23T03:52:08.613Z,0.00
2023-04-23T03:52:30.995Z,0.00
2023-04-23T03:52:53.134Z,0.30
2023-04-23T03:53:14.957Z,0.00
2023-04-23T03:53:36.743Z,0.00
2023-04-23T03:53:58.855Z,0.00
2023-04-23T03:54:21.018Z,0.00
2023-04-23T03:54:43.332Z,0.00
2023-04-23T03:55:05.799Z,0.20
2023-04-23T03:55:27.954Z,0.20
2023-04-23T03:55:50.094Z,0.30
2023-04-23T03:56:12.256Z,0.00
2023-04-23T03:56:34.415Z,0.00
2023-04-23T03:56:57.696Z,0.00
2023-04-23T03:57:20.186Z,0.00
2023-04-23T03:57:42.460Z,0.00
2023-04-23T03:58:04.641Z,1.70
2023-04-23T03:58:26.833Z,1.20
2023-04-23T03:58:48.992Z,1.90
2023-04-23T03:59:11.142Z,2.08
2023-04-23T03:59:33.279Z,0.05
2023-04-23T03:59:55.569Z,0.00
2023-04-23T04:00:17.910Z,0.00
2023-04-23T04:00:39.715Z,0.30
2023-04-23T04:01:01.871Z,1.08
2023-04-23T04:01:24.017Z,2.55
2023-04-23T04:01:46.242Z,5.45
2023-04-23T04:02:08.607Z,1.60
2023-04-23T04:02:30.986Z,0.60
2023-04-23T04:02:53.439Z,0.20
2023-04-23T04:03:15.835Z,0.03
2023-04-23T04:03:38.231Z,0.17
2023-04-23T04:04:01.044Z,0.80
2023-04-23T04:04:23.529Z,0.90
2023-04-23T04:04:46.765Z,0.68
2023-04-23T04:05:11.514Z,4.75
2023-04-23T04:05:33.973Z,2.00
2023-04-23T04:05:56.225Z,0.10
2023-04-23T04:06:18.396Z,0.15
2023-04-23T04:06:41.457Z,3.05
2023-04-23T04:07:03.668Z,0.50
2023-04-23T04:07:27.054Z,5.63
2023-04-23T04:07:49.242Z,0.20
2023-04-23T04:08:11.432Z,0.40
2023-04-23T04:08:33.613Z,2.33
2023-04-23T04:08:55.899Z,5.80
2023-04-23T04:09:18.107Z,2.65
2023-04-23T04:09:40.353Z,0.95
2023-04-23T04:10:03.221Z,0.50
2023-04-23T04:10:25.030Z,0.40
2023-04-23T04:10:47.474Z,0.80
2023-04-23T04:11:09.679Z,0.08
2023-04-23T04:11:31.914Z,0.20
2023-04-23T04:11:54.197Z,0.22
2023-04-23T04:12:16.636Z,0.30
2023-04-23T04:12:39.820Z,2.55
2023-04-23T04:13:02.014Z,4.32
2023-04-23T04:13:24.334Z,1.77
2023-04-23T04:13:46.503Z,2.33
2023-04-23T04:14:08.664Z,0.60
2023-04-23T04:14:31.705Z,0.20
2023-04-23T04:14:53.884Z,0.60
2023-04-23T04:15:17.457Z,0.35
2023-04-23T04:15:39.682Z,0.08
2023-04-23T04:16:01.861Z,0.68
2023-04-23T04:16:24.188Z,4.63
2023-04-23T04:16:46.514Z,4.22
2023-04-23T04:17:09.135Z,4.18
2023-04-23T04:17:31.379Z,4.50
2023-04-23T04:17:53.710Z,2.60
2023-04-23T04:18:16.331Z,1.25
2023-04-23T04:18:39.372Z,1.30
2023-04-23T04:19:01.577Z,0.20
2023-04-23T04:19:24.065Z,2.20
2023-04-23T04:19:46.259Z,0.85
2023-04-23T04:20:09.298Z,0.00
2023-04-23T04:20:31.491Z,5.55
2023-04-23T04:20:55.095Z,0.60
2023-04-23T04:21:19.042Z,2.05
2023-04-23T04:21:41.243Z,4.88
2023-04-23T04:22:03.742Z,2.95
2023-04-23T04:22:25.595Z,1.63
2023-04-23T04:22:47.824Z,2.00
2023-04-23T04:23:09.774Z,0.43
2023-04-23T04:23:32.016Z,2.40
2023-04-23T04:23:54.582Z,5.95
2023-04-23T04:24:17.372Z,4.97
2023-04-23T04:24:42.242Z,8.80
2023-04-23T04:25:05.292Z,3.03
2023-04-23T04:25:28.976Z,0.10
2023-04-23T04:25:51.680Z,3.78
2023-04-23T04:26:15.206Z,8.45
2023-04-23T04:26:37.462Z,7.90
2023-04-23T04:27:02.524Z,14.55
2023-04-23T04:27:24.631Z,3.45
2023-04-23T04:27:46.749Z,3.38
2023-04-23T04:28:11.592Z,7.75
2023-04-23T04:28:38.060Z,6.22
2023-04-23T04:29:01.552Z,4.30
2023-04-23T04:29:23.948Z,6.60
2023-04-23T04:29:46.128Z,5.45
2023-04-23T04:30:09.016Z,3.58
2023-04-23T04:30:31.318Z,1.20
2023-04-23T04:30:54.164Z,0.75
2023-04-23T04:31:16.408Z,0.95
2023-04-23T04:31:38.791Z,2.50
2023-04-23T04:32:02.663Z,1.30
2023-04-23T04:32:25.018Z,0.10
2023-04-23T04:32:47.251Z,0.85
2023-04-23T04:33:09.943Z,0.20
2023-04-23T04:33:33.043Z,0.68
2023-04-23T04:33:58.104Z,0.70
2023-04-23T04:34:20.318Z,3.35
2023-04-23T04:34:43.009Z,3.22
2023-04-23T04:35:06.043Z,4.97
2023-04-23T04:35:28.279Z,0.40
2023-04-23T04:35:51.040Z,0.10
2023-04-23T04:36:13.637Z,0.00
2023-04-23T04:36:35.876Z,1.50
2023-04-23T04:36:58.089Z,2.83
2023-04-23T04:37:21.289Z,1.50
2023-04-23T04:37:44.025Z,0.20
2023-04-23T04:38:05.786Z,0.10
2023-04-23T04:38:28.602Z,0.50
2023-04-23T04:38:51.804Z,1.00
2023-04-23T04:39:14.836Z,1.40
2023-04-23T04:39:37.124Z,1.60
2023-04-23T04:39:59.299Z,3.10
2023-04-23T04:40:21.312Z,0.08
2023-04-23T04:40:44.991Z,0.30
2023-04-23T04:41:07.775Z,2.28
2023-04-23T04:41:29.932Z,0.55
2023-04-23T04:41:52.106Z,1.50
2023-04-23T04:42:14.394Z,1.02
2023-04-23T04:42:37.258Z,1.40
2023-04-23T04:43:00.580Z,0.93
2023-04-23T04:43:22.708Z,5.15
2023-04-23T04:43:47.440Z,1.67
2023-04-23T04:44:09.380Z,2.33
2023-04-23T04:44:32.213Z,0.75
2023-04-23T04:44:54.340Z,0.40
2023-04-23T04:45:17.115Z,0.60
2023-04-23T04:45:39.263Z,3.65
2023-04-23T04:46:01.594Z,3.45
2023-04-23T04:46:23.886Z,1.13
2023-04-23T04:46:46.141Z,1.00
2023-04-23T04:47:08.558Z,1.55
2023-04-23T04:47:31.178Z,6.28
2023-04-23T04:47:53.551Z,4.68
2023-04-23T04:48:15.780Z,5.82
2023-04-23T04:48:38.045Z,5.00
2023-04-23T04:49:00.167Z,0.40
2023-04-23T04:49:23.046Z,0.10
2023-04-23T04:49:45.589Z,0.65
2023-04-23T04:50:08.052Z,8.15
2023-04-23T04:50:30.204Z,4.28
2023-04-23T04:50:52.347Z,1.10
2023-04-23T04:51:14.532Z,3.10
2023-04-23T04:51:40.900Z,0.80
2023-04-23T04:52:03.073Z,1.27
2023-04-23T04:52:25.177Z,5.10
2023-04-23T04:52:47.347Z,2.38
2023-04-23T04:53:09.493Z,0.00
2023-04-23T04:53:31.680Z,0.70
2023-04-23T04:53:54.217Z,0.80
2023-04-23T04:54:16.372Z,2.03
2023-04-23T04:54:38.656Z,1.73
2023-04-23T04:55:00.871Z,0.28
2023-04-23T04:55:23.222Z,1.20
2023-04-23T04:55:45.505Z,5.10
2023-04-23T04:56:07.638Z,8.32
2023-04-23T04:56:30.021Z,8.63
2023-04-23T04:56:52.158Z,6.00
2023-04-23T04:57:14.301Z,6.70
2023-04-23T04:57:36.641Z,5.88
2023-04-23T04:57:58.799Z,7.97
2023-04-23T04:58:21.602Z,5.28
2023-04-23T04:58:43.760Z,7.60
2023-04-23T04:59:05.931Z,3.42
2023-04-23T04:59:28.130Z,2.97
2023-04-23T04:59:50.602Z,3.03
2023-04-23T05:00:30.993Z,1.67
2023-04-23T05:00:53.174Z,8.32